createdAt,value
2024-01-20T00:02:04.841Z,65.53
2024-01-20T00:04:35.930Z,65.83
2024-01-20T00:07:06.703Z,66.02
2024-01-20T00:09:46.034Z,66.07
2024-01-20T00:12:20.828Z,66.04
2024-01-20T00:14:51.973Z,66.18
2024-01-20T00:17:25.803Z,66.16
2024-01-20T00:19:59.143Z,65.44
2024-01-20T00:22:29.484Z,65.55
2024-01-20T00:25:02.158Z,65.56
2024-01-20T00:27:32.954Z,65.92
2024-01-20T00:30:04.511Z,66.05
2024-01-20T00:32:35.469Z,65.64
2024-01-20T00:35:08.632Z,65.97
2024-01-20T00:37:40.098Z,66.27
2024-01-20T00:40:11.781Z,66.05
2024-01-20T00:42:41.964Z,66.23
2024-01-20T00:45:13.145Z,66.09
2024-01-20T00:47:45.779Z,66.28
2024-01-20T00:50:16.483Z,65.83
2024-01-20T00:52:46.909Z,66.33
2024-01-20T00:55:18.725Z,66.85
2024-01-20T00:57:48.873Z,66.36
2024-01-20T01:00:20.333Z,66.73
2024-01-20T01:02:50.587Z,66.82
2024-01-20T01:05:21.182Z,66.78
2024-01-20T01:07:51.555Z,66.63
2024-01-20T01:10:22.013Z,67.06
2024-01-20T01:12:52.556Z,67.01
2024-01-20T01:15:23.396Z,66.84
2024-01-20T01:17:53.631Z,67.39
2024-01-20T01:20:24.455Z,67.21
2024-01-20T01:22:54.636Z,67.02
2024-01-20T01:25:25.145Z,67.40
2024-01-20T01:27:55.367Z,67.43
2024-01-20T01:30:25.905Z,67.23
2024-01-20T01:32:56.154Z,67.22
2024-01-20T01:35:26.739Z,67.20
2024-01-20T01:37:59.636Z,67.54
2024-01-20T01:40:30.249Z,67.22
2024-01-20T01:43:00.659Z,67.04
2024-01-20T01:45:31.159Z,67.39
2024-01-20T01:51:05.437Z,67.60
2024-01-20T01:53:36.406Z,67.49
2024-01-20T01:56:08.301Z,67.46
2024-01-20T01:58:39.127Z,67.56
2024-01-20T02:01:09.385Z,67.51
2024-01-20T02:03:40.803Z,67.42
2024-01-20T02:06:11.417Z,67.53
2024-01-20T02:08:42.438Z,67.25
2024-01-20T02:11:13.636Z,67.22
2024-01-20T02:13:44.989Z,67.60
2024-01-20T02:16:15.242Z,67.72
2024-01-20T02:18:46.042Z,67.68
2024-01-20T02:21:16.388Z,67.76
2024-01-20T02:23:47.856Z,67.86
2024-01-20T02:26:18.030Z,67.37
2024-01-20T02:28:49.713Z,67.97
2024-01-20T02:31:19.979Z,67.92
2024-01-20T02:33:50.701Z,67.72
2024-01-20T02:36:21.315Z,68.04
2024-01-20T02:38:51.889Z,67.86
2024-01-20T02:41:22.048Z,68.08
2024-01-20T02:43:52.569Z,67.58
2024-01-20T02:46:22.931Z,67.73
2024-01-20T02:48:53.483Z,68.21
2024-01-20T02:51:23.888Z,68.33
2024-01-20T02:53:54.428Z,67.70
2024-01-20T02:56:25.708Z,67.76
2024-01-20T02:58:56.369Z,68.71
2024-01-20T03:01:26.695Z,68.75
2024-01-20T03:03:57.158Z,69.03
2024-01-20T03:06:27.460Z,69.10
2024-01-20T03:08:58.122Z,69.23
2024-01-20T03:11:28.465Z,69.47
2024-01-20T03:13:58.921Z,69.30
2024-01-20T03:16:29.149Z,69.57
2024-01-20T03:19:00.253Z,70.13
2024-01-20T03:21:30.705Z,69.58
2024-01-20T03:24:01.332Z,69.54
2024-01-20T03:26:31.655Z,70.37
2024-01-20T03:29:02.433Z,70.49
2024-01-20T03:31:32.622Z,70.30
2024-01-20T03:34:03.119Z,70.38
2024-01-20T03:36:33.405Z,70.20
2024-01-20T03:39:04.400Z,71.04
2024-01-20T03:41:34.757Z,70.54
2024-01-20T03:44:05.445Z,70.81
2024-01-20T03:46:35.553Z,70.63
2024-01-20T03:49:06.337Z,71.15
2024-01-20T03:51:36.970Z,70.84
2024-01-20T03:54:07.817Z,71.11
2024-01-20T03:56:45.095Z,71.38
2024-01-20T03:59:15.736Z,71.08
2024-01-20T04:01:45.917Z,71.47
2024-01-20T04:04:16.478Z,71.66
2024-01-20T04:06:46.589Z,71.89
2024-01-20T04:09:17.107Z,71.95
2024-01-20T04:11:47.349Z,71.54
2024-01-20T04:14:17.982Z,71.66
2024-01-20T04:16:48.767Z,71.24
2024-01-20T04:19:19.840Z,71.55
2024-01-20T04:21:50.153Z,71.80
2024-01-20T04:24:20.677Z,71.34
2024-01-20T04:26:50.901Z,71.54
2024-01-20T04:29:21.382Z,71.76
2024-01-20T04:31:51.799Z,72.11
2024-01-20T04:34:22.383Z,71.49
2024-01-20T04:36:52.657Z,71.75
2024-01-20T04:39:23.306Z,71.66
2024-01-20T04:41:53.435Z,71.67
2024-01-20T04:44:23.928Z,71.34
2024-01-20T04:46:54.146Z,71.41
2024-01-20T04:49:24.796Z,71.77
2024-01-20T04:51:55.064Z,71.40
2024-01-20T04:54:25.749Z,71.80
2024-01-20T04:56:58.408Z,71.63
2024-01-20T04:59:30.575Z,71.83
2024-01-20T05:02:01.233Z,71.77
2024-01-20T05:04:31.924Z,72.01
2024-01-20T05:07:02.189Z,71.59
2024-01-20T05:09:33.005Z,72.01
2024-01-20T05:12:03.588Z,71.84
2024-01-20T05:14:34.280Z,71.59
2024-01-20T05:17:04.895Z,71.76
2024-01-20T05:19:39.489Z,71.71
2024-01-20T05:22:09.839Z,71.90
2024-01-20T05:24:40.384Z,71.68
2024-01-20T05:27:11.792Z,71.70
2024-01-20T05:29:42.352Z,72.32
2024-01-20T05:32:12.558Z,72.11
2024-01-20T05:34:43.437Z,72.27
2024-01-20T05:37:13.755Z,72.48
2024-01-20T05:39:44.109Z,72.63
2024-01-20T05:42:15.438Z,72.02
2024-01-20T05:44:46.049Z,72.69
2024-01-20T05:47:16.437Z,72.09
2024-01-20T05:49:46.961Z,72.62
2024-01-20T05:52:17.163Z,72.34
2024-01-20T05:54:47.786Z,72.00
2024-01-20T05:57:18.174Z,72.48
2024-01-20T05:59:48.928Z,72.51
2024-01-20T06:02:19.576Z,72.58
2024-01-20T06:04:50.123Z,72.13
2024-01-20T06:07:20.484Z,72.24
2024-01-20T06:09:50.943Z,72.52
2024-01-20T06:12:21.161Z,71.80
2024-01-20T06:14:51.671Z,72.14
2024-01-20T06:17:21.968Z,72.47
2024-01-20T06:19:52.900Z,72.17
2024-01-20T06:22:22.955Z,72.26
2024-01-20T06:24:53.484Z,71.82
2024-01-20T06:27:23.968Z,71.71
2024-01-20T06:29:54.524Z,72.31
2024-01-20T06:32:24.761Z,71.88
2024-01-20T06:34:55.373Z,72.16
2024-01-20T06:37:25.799Z,71.77
2024-01-20T06:39:56.559Z,72.02
2024-01-20T06:42:27.094Z,71.98
2024-01-20T06:44:59.256Z,72.00
2024-01-20T06:47:31.488Z,72.36
2024-01-20T06:50:02.122Z,71.55
2024-01-20T06:52:34.169Z,71.89
2024-01-20T06:55:05.416Z,71.58
2024-01-20T06:57:35.981Z,72.00
2024-01-20T07:00:09.803Z,71.59
2024-01-20T07:02:40.076Z,72.05
2024-01-20T07:05:11.345Z,72.10
2024-01-20T07:07:42.508Z,71.78
2024-01-20T07:10:13.454Z,71.95
2024-01-20T07:12:43.930Z,71.67
2024-01-20T07:15:14.456Z,71.90
2024-01-20T07:17:44.876Z,71.77
2024-01-20T07:20:15.996Z,72.00
2024-01-20T07:22:46.252Z,71.85
2024-01-20T07:25:18.408Z,71.87
2024-01-20T07:27:48.788Z,71.84
2024-01-20T07:30:19.450Z,72.06
2024-01-20T07:32:49.722Z,72.07
2024-01-20T07:35:21.052Z,72.24
2024-01-20T07:37:51.396Z,71.91
2024-01-20T07:40:21.821Z,72.09
2024-01-20T07:42:52.081Z,71.82
2024-01-20T07:45:23.007Z,71.97
2024-01-20T07:47:53.398Z,72.18
2024-01-20T07:50:23.857Z,72.35
2024-01-20T07:52:54.197Z,72.29
2024-01-20T07:55:24.727Z,72.35
2024-01-20T07:57:54.967Z,72.06
2024-01-20T08:00:25.551Z,71.85
2024-01-20T08:02:55.834Z,72.15
2024-01-20T08:05:26.122Z,71.79
2024-01-20T08:07:56.154Z,71.78
2024-01-20T08:10:27.236Z,71.80
2024-01-20T08:12:57.570Z,71.86
2024-01-20T08:15:28.347Z,72.09
2024-01-20T08:17:58.698Z,71.98
2024-01-20T08:20:29.049Z,71.70
2024-01-20T08:22:59.365Z,71.52
2024-01-20T08:25:29.952Z,71.58
2024-01-20T08:28:00.832Z,71.63
2024-01-20T08:30:31.282Z,71.22
2024-01-20T08:33:04.267Z,71.66
2024-01-20T08:35:36.001Z,71.62
2024-01-20T08:38:06.267Z,71.20
2024-01-20T08:40:36.721Z,71.03
2024-01-20T08:43:07.460Z,71.17
2024-01-20T08:45:38.543Z,70.91
2024-01-20T08:48:10.194Z,71.04
2024-01-20T08:50:41.372Z,71.13
2024-01-20T08:53:11.604Z,70.80
2024-01-20T08:55:42.120Z,70.74
2024-01-20T08:58:12.193Z,71.05
2024-01-20T09:00:42.747Z,70.83
2024-01-20T09:03:13.302Z,71.28
2024-01-20T09:05:43.980Z,70.82
2024-01-20T09:08:14.635Z,71.12
2024-01-20T09:10:45.374Z,70.75
2024-01-20T09:13:16.631Z,70.56
2024-01-20T09:15:47.383Z,70.76
2024-01-20T09:18:19.068Z,70.87
2024-01-20T09:20:50.379Z,70.77
2024-01-20T09:23:20.573Z,70.36
2024-01-20T09:25:51.189Z,70.55
2024-01-20T09:28:21.301Z,70.82
2024-01-20T09:30:51.818Z,71.00
2024-01-20T09:33:22.197Z,71.97
2024-01-20T09:35:52.867Z,71.84
2024-01-20T09:38:23.262Z,72.09
2024-01-20T09:40:54.059Z,72.33
2024-01-20T09:43:24.299Z,71.84
2024-01-20T09:45:55.588Z,72.69
2024-01-20T09:48:26.339Z,72.09
2024-01-20T09:50:58.824Z,72.53
2024-01-20T09:53:29.489Z,72.13
2024-01-20T09:56:00.380Z,72.62
2024-01-20T09:58:33.997Z,72.52
2024-01-20T10:01:05.759Z,72.66
2024-01-20T10:03:40.942Z,72.61
2024-01-20T10:06:11.667Z,72.88
2024-01-20T10:08:41.847Z,75.47
2024-01-20T10:11:12.378Z,76.66
2024-01-20T10:13:42.555Z,77.21
2024-01-20T10:16:13.024Z,77.01
2024-01-20T10:18:44.061Z,77.39
2024-01-20T10:21:14.442Z,77.68
2024-01-20T10:23:44.820Z,77.72
2024-01-20T10:26:15.604Z,77.95
2024-01-20T10:28:46.345Z,77.94
2024-01-20T10:31:16.885Z,76.70
2024-01-20T10:33:48.758Z,76.61
2024-01-20T10:36:20.286Z,77.11
2024-01-20T10:38:53.504Z,77.35
2024-01-20T10:41:25.894Z,77.36
2024-01-20T10:44:03.158Z,77.33
2024-01-20T10:46:40.652Z,77.16
2024-01-20T10:49:14.588Z,77.71
2024-01-20T10:51:46.364Z,77.36
2024-01-20T10:54:17.553Z,77.56
2024-01-20T10:56:48.070Z,77.36
2024-01-20T10:59:20.392Z,77.08
2024-01-20T11:01:51.218Z,76.09
2024-01-20T11:04:21.458Z,75.84
2024-01-20T11:06:52.294Z,76.11
2024-01-20T11:09:23.341Z,76.00
2024-01-20T11:12:05.483Z,76.66
2024-01-20T11:14:36.848Z,76.55
2024-01-20T11:17:14.491Z,76.62
2024-01-20T11:19:45.086Z,76.82
2024-01-20T11:22:35.909Z,77.67
2024-01-20T11:25:08.139Z,77.47
2024-01-20T11:27:58.988Z,77.25
2024-01-20T11:30:36.415Z,77.13
2024-01-20T11:33:08.451Z,76.98
2024-01-20T11:35:39.065Z,77.25
2024-01-20T11:38:09.923Z,77.38
2024-01-20T11:40:40.353Z,78.48
2024-01-20T11:43:14.607Z,78.30
2024-01-20T11:45:44.769Z,78.32
2024-01-20T11:48:18.710Z,77.74
2024-01-20T11:50:50.021Z,78.46
2024-01-20T11:53:23.796Z,78.83
2024-01-20T11:56:00.653Z,79.63
2024-01-20T11:58:31.946Z,79.78
2024-01-20T12:01:04.307Z,79.64
2024-01-20T12:03:35.157Z,80.25
2024-01-20T12:06:14.223Z,81.12
2024-01-20T12:08:46.754Z,86.80
2024-01-20T12:11:21.169Z,89.62
2024-01-20T12:13:51.653Z,92.45
2024-01-20T12:16:25.047Z,91.49
2024-01-20T12:18:56.517Z,93.31
2024-01-20T12:21:28.930Z,94.05
2024-01-20T12:23:59.460Z,94.75
2024-01-20T12:26:29.374Z,94.94
2024-01-20T12:28:59.989Z,95.25
2024-01-20T12:31:31.624Z,94.84
2024-01-20T12:34:05.138Z,95.69
2024-01-20T12:36:35.328Z,97.55
2024-01-20T12:39:06.960Z,97.36
2024-01-20T12:41:37.311Z,97.33
2024-01-20T12:44:07.719Z,97.40
2024-01-20T12:46:38.137Z,99.38
2024-01-20T12:49:09.084Z,99.02
2024-01-20T12:51:40.703Z,98.23
2024-01-20T12:54:11.135Z,98.38
2024-01-20T12:56:41.484Z,98.40
2024-01-20T12:59:11.819Z,98.14
2024-01-20T13:01:42.143Z,98.33
2024-01-20T13:04:14.790Z,97.70
2024-01-20T13:06:44.970Z,98.46
2024-01-20T13:09:15.573Z,98.01
2024-01-20T13:11:45.740Z,100.00
2024-01-20T13:14:16.392Z,100.00
2024-01-20T13:16:46.763Z,99.86
2024-01-20T13:19:17.489Z,99.02
2024-01-20T13:21:47.859Z,98.44
2024-01-20T13:24:18.543Z,98.79
2024-01-20T13:26:48.606Z,98.43
2024-01-20T13:29:19.178Z,99.73
2024-01-20T13:31:49.317Z,100.00
2024-01-20T13:34:19.949Z,99.22
2024-01-20T13:36:50.276Z,99.21
2024-01-20T13:39:20.753Z,99.12
2024-01-20T13:41:51.838Z,98.97
2024-01-20T13:44:22.395Z,97.92
2024-01-20T13:46:52.497Z,97.92
2024-01-20T13:49:23.253Z,97.22
2024-01-20T13:51:53.493Z,97.44
2024-01-20T13:54:25.344Z,97.83
2024-01-20T13:56:55.678Z,98.57
2024-01-20T13:59:27.925Z,97.94
2024-01-20T14:01:58.223Z,98.19
2024-01-20T14:04:28.772Z,99.16
2024-01-20T14:07:03.432Z,99.21
2024-01-20T14:09:36.114Z,98.57
2024-01-20T14:12:06.722Z,98.14
2024-01-20T14:14:37.668Z,97.04
2024-01-20T14:17:08.025Z,96.24
2024-01-20T14:19:39.333Z,95.86
2024-01-20T14:22:09.394Z,96.65
2024-01-20T14:24:39.778Z,97.41
2024-01-20T14:27:10.071Z,98.82
2024-01-20T14:29:40.440Z,98.38
2024-01-20T14:32:10.905Z,99.18
2024-01-20T14:34:41.525Z,97.86
2024-01-20T14:37:11.797Z,98.34
2024-01-20T14:39:42.261Z,98.81
2024-01-20T14:42:12.797Z,99.48
2024-01-20T14:44:43.208Z,99.07
2024-01-20T14:47:13.195Z,98.18
2024-01-20T14:49:43.831Z,97.48
2024-01-20T14:52:16.290Z,99.09
2024-01-20T14:54:46.560Z,99.31
2024-01-20T14:57:16.772Z,99.19
2024-01-20T14:59:47.023Z,99.87
2024-01-20T15:02:17.009Z,99.15
2024-01-20T15:04:47.716Z,98.35
2024-01-20T15:07:18.123Z,98.29
2024-01-20T15:09:48.729Z,97.99
2024-01-20T15:12:18.965Z,100.00
2024-01-20T15:14:49.640Z,100.00
2024-01-20T15:17:19.890Z,100.00
2024-01-20T15:19:51.137Z,100.00
2024-01-20T15:22:21.459Z,100.00
2024-01-20T15:24:51.844Z,100.00
2024-01-20T15:27:22.202Z,100.00
2024-01-20T15:29:52.526Z,100.00
2024-01-20T15:32:24.804Z,100.00
2024-01-20T15:34:55.454Z,100.00
2024-01-20T15:37:25.655Z,100.00
2024-01-20T15:39:56.156Z,99.46
2024-01-20T15:42:26.572Z,98.32
2024-01-20T15:44:57.117Z,98.17
2024-01-20T15:47:27.438Z,97.93
2024-01-20T15:49:57.737Z,97.62
2024-01-20T15:52:29.046Z,96.82
2024-01-20T15:55:00.326Z,96.57
2024-01-20T15:57:30.632Z,96.43
2024-01-20T16:00:01.098Z,96.38
2024-01-20T16:02:31.737Z,95.32
2024-01-20T16:05:01.995Z,93.85
2024-01-20T16:07:32.320Z,93.52
2024-01-20T16:10:04.978Z,94.26
2024-01-20T16:12:35.227Z,93.85
2024-01-20T16:15:06.400Z,93.03
2024-01-20T16:17:37.380Z,92.56
2024-01-20T16:20:09.613Z,91.70
2024-01-20T16:22:39.815Z,91.55
2024-01-20T16:25:10.243Z,91.67
2024-01-20T16:27:40.498Z,91.55
2024-01-20T16:30:11.258Z,91.17
2024-01-20T16:32:41.315Z,90.68
2024-01-20T16:35:12.414Z,90.24
2024-01-20T16:37:42.796Z,89.93
2024-01-20T16:40:13.165Z,89.70
2024-01-20T16:42:43.580Z,88.70
2024-01-20T16:45:14.022Z,87.76
2024-01-20T16:47:44.273Z,87.57
2024-01-20T16:50:14.735Z,86.74
2024-01-20T16:52:44.881Z,86.61
2024-01-20T16:55:17.129Z,86.90
2024-01-20T16:57:49.083Z,86.58
2024-01-20T17:00:19.816Z,86.62
2024-01-20T17:02:49.962Z,86.08
2024-01-20T17:05:20.582Z,86.66
2024-01-20T17:07:51.919Z,86.80
2024-01-20T17:10:22.418Z,85.70
2024-01-20T17:12:52.730Z,86.38
2024-01-20T17:15:26.038Z,85.84
2024-01-20T17:17:56.105Z,85.50
2024-01-20T17:20:26.512Z,86.25
2024-01-20T17:22:58.154Z,84.66
2024-01-20T17:25:28.745Z,85.33
2024-01-20T17:27:58.907Z,84.58
2024-01-20T17:30:29.726Z,83.41
2024-01-20T17:32:59.983Z,83.53
2024-01-20T17:35:31.304Z,82.64
2024-01-20T17:38:01.342Z,81.90
2024-01-20T17:40:31.877Z,80.95
2024-01-20T17:43:02.189Z,81.10
2024-01-20T17:45:32.835Z,79.75
2024-01-20T17:48:03.136Z,79.93
2024-01-20T17:50:33.616Z,79.58
2024-01-20T17:53:04.434Z,78.97
2024-01-20T17:55:34.688Z,78.90
2024-01-20T17:58:04.801Z,78.64
2024-01-20T18:00:35.025Z,79.90
2024-01-20T18:03:05.735Z,78.40
2024-01-20T18:05:36.912Z,77.58
2024-01-20T18:08:07.125Z,76.90
2024-01-20T18:10:39.984Z,77.45
2024-01-20T18:13:10.402Z,76.37
2024-01-20T18:15:41.003Z,76.51
2024-01-20T18:18:11.560Z,76.46
2024-01-20T18:20:42.103Z,75.37
2024-01-20T18:23:12.607Z,74.74
2024-01-20T18:25:43.362Z,74.08
2024-01-20T18:28:14.396Z,73.89
2024-01-20T18:30:45.972Z,72.76
2024-01-20T18:33:16.742Z,71.77
2024-01-20T18:35:47.184Z,71.24
2024-01-20T18:38:17.396Z,72.17
2024-01-20T18:40:48.366Z,72.57
2024-01-20T18:43:18.474Z,71.93
2024-01-20T18:45:48.994Z,71.88
2024-01-20T18:48:19.596Z,71.73
2024-01-20T18:50:50.052Z,71.52
2024-01-20T18:53:20.333Z,71.58
2024-01-20T18:55:51.381Z,70.71
2024-01-20T18:58:21.492Z,72.11
2024-01-20T19:00:53.034Z,71.66
2024-01-20T19:03:23.571Z,72.08
2024-01-20T19:05:54.051Z,71.15
2024-01-20T19:08:24.342Z,70.95
2024-01-20T19:10:54.913Z,71.38
2024-01-20T19:13:25.030Z,70.19
2024-01-20T19:15:55.569Z,70.00
2024-01-20T19:18:25.901Z,70.33
2024-01-20T19:20:56.359Z,70.15
2024-01-20T19:23:26.591Z,70.62
2024-01-20T19:25:57.510Z,69.56
2024-01-20T19:28:27.663Z,70.07
2024-01-20T19:30:58.402Z,70.87
2024-01-20T19:33:28.826Z,70.88
2024-01-20T19:35:59.642Z,69.98
2024-01-20T19:38:29.692Z,69.90
2024-01-20T19:41:00.159Z,70.40
2024-01-20T19:43:32.028Z,70.55
2024-01-20T19:46:03.860Z,69.19
2024-01-20T19:48:34.761Z,69.01
2024-01-20T19:51:05.791Z,69.90
2024-01-20T19:53:36.509Z,70.08
2024-01-20T19:56:08.477Z,71.86
2024-01-20T19:58:38.589Z,72.20
2024-01-20T20:01:09.972Z,73.53
2024-01-20T20:03:40.282Z,74.82
2024-01-20T20:06:11.079Z,75.46
2024-01-20T20:08:41.366Z,76.46
2024-01-20T20:11:11.906Z,75.82
2024-01-20T20:13:42.176Z,75.96
2024-01-20T20:16:12.587Z,75.59
2024-01-20T20:18:42.951Z,75.76
2024-01-20T20:21:14.982Z,76.19
2024-01-20T20:23:45.100Z,75.87
2024-01-20T20:26:15.596Z,74.81
2024-01-20T20:28:45.822Z,75.05
2024-01-20T20:31:18.177Z,75.38
2024-01-20T20:33:48.556Z,75.09
2024-01-20T20:36:20.623Z,75.44
2024-01-20T20:38:51.201Z,75.17
2024-01-20T20:41:21.918Z,75.07
2024-01-20T20:43:52.539Z,76.22
2024-01-20T20:46:23.004Z,75.61
2024-01-20T20:48:53.264Z,75.39
2024-01-20T20:51:24.793Z,76.16
2024-01-20T20:53:55.105Z,76.63
2024-01-20T20:56:25.693Z,77.26
2024-01-20T20:58:55.952Z,76.57
2024-01-20T21:01:26.459Z,77.45
2024-01-20T21:03:56.723Z,78.21
2024-01-20T21:06:27.960Z,78.01
2024-01-20T21:08:58.820Z,76.94
2024-01-20T21:11:30.194Z,76.61
2024-01-20T21:14:00.512Z,76.53
2024-01-20T21:16:31.074Z,76.57
2024-01-20T21:19:02.402Z,77.67
2024-01-20T21:21:33.904Z,77.44
2024-01-20T21:24:04.285Z,77.02
2024-01-20T21:26:36.121Z,76.27
2024-01-20T21:29:06.205Z,77.18
2024-01-20T21:31:36.704Z,76.63
2024-01-20T21:34:06.993Z,75.94
2024-01-20T21:36:38.630Z,76.79
2024-01-20T21:39:11.009Z,76.58
2024-01-20T21:41:41.574Z,76.62
2024-01-20T21:44:11.885Z,76.54
2024-01-20T21:46:42.705Z,76.32
2024-01-20T21:49:13.117Z,76.85
2024-01-20T21:51:43.750Z,76.24
2024-01-20T21:54:15.136Z,76.00
2024-01-20T21:56:45.788Z,76.07
2024-01-20T21:59:15.978Z,75.81
2024-01-20T22:01:46.560Z,76.13
2024-01-20T22:04:16.821Z,75.57
2024-01-20T22:06:47.541Z,75.78
2024-01-20T22:09:18.068Z,75.54
2024-01-20T22:11:48.601Z,76.29
2024-01-20T22:14:18.935Z,76.31
2024-01-20T22:16:49.312Z,76.95
2024-01-20T22:19:19.741Z,77.34
2024-01-20T22:21:50.482Z,77.15
2024-01-20T22:24:20.788Z,76.63
2024-01-20T22:26:51.553Z,77.00
2024-01-20T22:29:30.633Z,77.16
2024-01-20T22:32:02.610Z,76.47
2024-01-20T22:34:33.531Z,76.57
2024-01-20T22:37:04.554Z,75.94
2024-01-20T22:39:35.283Z,76.23
2024-01-20T22:42:06.116Z,75.89
2024-01-20T22:44:36.202Z,75.69
2024-01-20T22:47:06.687Z,74.80
2024-01-20T22:49:37.940Z,74.61
2024-01-20T22:52:09.981Z,75.00
2024-01-20T22:54:40.305Z,74.50
2024-01-20T22:57:10.704Z,74.58
2024-01-20T22:59:40.900Z,74.43
2024-01-20T23:02:11.413Z,73.67
2024-01-20T23:04:41.764Z,73.49
2024-01-20T23:07:12.440Z,74.39
2024-01-20T23:09:43.264Z,74.13
2024-01-20T23:12:14.167Z,73.16
2024-01-20T23:14:44.984Z,73.04
2024-01-20T23:17:17.506Z,74.02
2024-01-20T23:19:47.881Z,74.52
2024-01-20T23:22:18.422Z,74.13
2024-01-20T23:24:49.238Z,73.40
2024-01-20T23:27:21.268Z,73.72
2024-01-20T23:29:51.523Z,73.80
2024-01-20T23:32:22.047Z,72.44
2024-01-20T23:34:52.191Z,72.39
2024-01-20T23:37:22.793Z,73.09
2024-01-20T23:39:53.030Z,73.69
2024-01-20T23:42:23.890Z,73.56
2024-01-20T23:44:54.556Z,73.58
2024-01-20T23:47:25.130Z,73.21
2024-01-20T23:49:55.582Z,72.08
2024-01-20T23:52:26.742Z,72.31
2024-01-20T23:54:57.014Z,72.65
2024-01-20T23:57:27.684Z,72.27
2024-01-20T23:59:57.911Z,72.19
